sensor_id;sensor_type;location;lat;lon;timestamp;P1;durP1;ratioP1;P2;durP2;ratioP2
9773;SDS011;4926;42.670;23.316;2022-07-19T00:01:19;5.15;;;2.58;;
9773;SDS011;4926;42.670;23.316;2022-07-19T00:03:46;6.47;;;2.50;;
9773;SDS011;4926;42.670;23.316;2022-07-19T00:06:13;3.47;;;2.50;;
9773;SDS011;4926;42.670;23.316;2022-07-19T00:08:39;4.60;;;2.90;;
9773;SDS011;4926;42.670;23.316;2022-07-19T00:11:07;3.95;;;2.35;;
9773;SDS011;4926;42.670;23.316;2022-07-19T00:13:33;3.05;;;2.70;;
9773;SDS011;4926;42.670;23.316;2022-07-19T00:16:02;3.90;;;2.85;;
9773;SDS011;4926;42.670;23.316;2022-07-19T00:18:28;2.85;;;2.50;;
9773;SDS011;4926;42.670;23.316;2022-07-19T00:20:58;3.40;;;2.50;;
9773;SDS011;4926;42.670;23.316;2022-07-19T00:23:26;4.57;;;2.63;;
9773;SDS011;4926;42.670;23.316;2022-07-19T00:25:53;4.72;;;3.17;;
9773;SDS011;4926;42.670;23.316;2022-07-19T00:28:20;5.93;;;2.92;;
9773;SDS011;4926;42.670;23.316;2022-07-19T00:30:47;4.63;;;2.70;;
9773;SDS011;4926;42.670;23.316;2022-07-19T00:33:15;3.88;;;2.80;;
9773;SDS011;4926;42.670;23.316;2022-07-19T00:35:42;3.78;;;2.72;;
9773;SDS011;4926;42.670;23.316;2022-07-19T00:38:10;3.45;;;2.85;;
9773;SDS011;4926;42.670;23.316;2022-07-19T00:40:38;3.53;;;2.38;;
9773;SDS011;4926;42.670;23.316;2022-07-19T00:43:07;3.78;;;2.83;;
9773;SDS011;4926;42.670;23.316;2022-07-19T00:45:37;3.60;;;2.80;;
9773;SDS011;4926;42.670;23.316;2022-07-19T00:48:05;3.00;;;2.60;;
9773;SDS011;4926;42.670;23.316;2022-07-19T00:50:33;4.32;;;2.80;;
9773;SDS011;4926;42.670;23.316;2022-07-19T00:53:02;3.47;;;2.60;;
9773;SDS011;4926;42.670;23.316;2022-07-19T00:55:31;3.15;;;2.60;;
9773;SDS011;4926;42.670;23.316;2022-07-19T00:58:03;4.47;;;2.70;;
9773;SDS011;4926;42.670;23.316;2022-07-19T01:00:31;5.00;;;2.92;;
9773;SDS011;4926;42.670;23.316;2022-07-19T01:02:59;5.53;;;2.65;;
9773;SDS011;4926;42.670;23.316;2022-07-19T01:05:26;7.50;;;3.00;;
9773;SDS011;4926;42.670;23.316;2022-07-19T01:07:55;2.92;;;2.60;;
9773;SDS011;4926;42.670;23.316;2022-07-19T01:10:22;5.53;;;2.50;;
9773;SDS011;4926;42.670;23.316;2022-07-19T01:12:49;3.53;;;2.63;;
9773;SDS011;4926;42.670;23.316;2022-07-19T01:15:17;4.45;;;2.90;;
9773;SDS011;4926;42.670;23.316;2022-07-19T01:17:47;4.85;;;2.47;;
9773;SDS011;4926;42.670;23.316;2022-07-19T01:20:14;5.32;;;2.70;;
9773;SDS011;4926;42.670;23.316;2022-07-19T01:22:49;4.32;;;2.45;;
9773;SDS011;4926;42.670;23.316;2022-07-19T01:25:18;3.33;;;2.42;;
9773;SDS011;4926;42.670;23.316;2022-07-19T01:27:45;2.40;;;2.20;;
9773;SDS011;4926;42.670;23.316;2022-07-19T01:30:17;2.72;;;2.40;;
9773;SDS011;4926;42.670;23.316;2022-07-19T01:32:46;3.80;;;2.75;;
9773;SDS011;4926;42.670;23.316;2022-07-19T01:35:15;3.45;;;2.50;;
9773;SDS011;4926;42.670;23.316;2022-07-19T01:37:48;4.55;;;2.30;;
9773;SDS011;4926;42.670;23.316;2022-07-19T01:40:17;3.55;;;2.58;;
9773;SDS011;4926;42.670;23.316;2022-07-19T01:42:44;2.53;;;2.33;;
9773;SDS011;4926;42.670;23.316;2022-07-19T01:45:13;8.13;;;2.55;;
9773;SDS011;4926;42.670;23.316;2022-07-19T01:47:40;4.72;;;2.50;;
9773;SDS011;4926;42.670;23.316;2022-07-19T01:50:08;5.50;;;2.45;;
9773;SDS011;4926;42.670;23.316;2022-07-19T01:52:36;7.18;;;2.60;;
9773;SDS011;4926;42.670;23.316;2022-07-19T01:55:05;5.68;;;2.60;;
9773;SDS011;4926;42.670;23.316;2022-07-19T01:57:35;5.28;;;2.55;;
9773;SDS011;4926;42.670;23.316;2022-07-19T02:00:02;4.25;;;2.42;;
9773;SDS011;4926;42.670;23.316;2022-07-19T02:02:33;3.17;;;2.50;;
9773;SDS011;4926;42.670;23.316;2022-07-19T02:05:00;5.32;;;2.53;;
9773;SDS011;4926;42.670;23.316;2022-07-19T02:07:29;3.05;;;2.50;;
9773;SDS011;4926;42.670;23.316;2022-07-19T02:09:58;5.50;;;2.60;;
9773;SDS011;4926;42.670;23.316;2022-07-19T02:12:26;3.53;;;2.50;;
9773;SDS011;4926;42.670;23.316;2022-07-19T02:14:54;4.07;;;2.58;;
9773;SDS011;4926;42.670;23.316;2022-07-19T02:17:20;6.18;;;2.50;;
9773;SDS011;4926;42.670;23.316;2022-07-19T02:19:47;3.40;;;2.45;;
9773;SDS011;4926;42.670;23.316;2022-07-19T02:22:14;3.08;;;2.78;;
9773;SDS011;4926;42.670;23.316;2022-07-19T02:24:41;3.60;;;2.38;;
9773;SDS011;4926;42.670;23.316;2022-07-19T02:27:17;2.38;;;2.13;;
9773;SDS011;4926;42.670;23.316;2022-07-19T02:29:49;3.28;;;2.22;;
9773;SDS011;4926;42.670;23.316;2022-07-19T02:32:16;2.88;;;2.10;;
9773;SDS011;4926;42.670;23.316;2022-07-19T02:34:43;5.78;;;2.47;;
9773;SDS011;4926;42.670;23.316;2022-07-19T02:37:10;7.70;;;2.40;;
9773;SDS011;4926;42.670;23.316;2022-07-19T02:39:39;4.38;;;2.30;;
9773;SDS011;4926;42.670;23.316;2022-07-19T02:42:06;4.03;;;2.85;;
9773;SDS011;4926;42.670;23.316;2022-07-19T02:44:33;6.35;;;2.15;;
9773;SDS011;4926;42.670;23.316;2022-07-19T02:47:01;3.78;;;2.60;;
9773;SDS011;4926;42.670;23.316;2022-07-19T02:49:28;4.13;;;2.50;;
9773;SDS011;4926;42.670;23.316;2022-07-19T02:51:55;3.90;;;2.22;;
9773;SDS011;4926;42.670;23.316;2022-07-19T02:54:22;5.85;;;2.30;;
9773;SDS011;4926;42.670;23.316;2022-07-19T02:56:48;4.05;;;2.05;;
9773;SDS011;4926;42.670;23.316;2022-07-19T02:59:15;5.93;;;2.20;;
9773;SDS011;4926;42.670;23.316;2022-07-19T03:01:42;3.67;;;2.47;;
9773;SDS011;4926;42.670;23.316;2022-07-19T03:04:12;5.05;;;2.30;;
9773;SDS011;4926;42.670;23.316;2022-07-19T03:06:39;3.65;;;2.25;;
9773;SDS011;4926;42.670;23.316;2022-07-19T03:09:09;2.70;;;2.13;;
9773;SDS011;4926;42.670;23.316;2022-07-19T03:11:38;5.80;;;2.25;;
9773;SDS011;4926;42.670;23.316;2022-07-19T03:14:04;4.82;;;2.47;;
9773;SDS011;4926;42.670;23.316;2022-07-19T03:16:37;5.38;;;2.50;;
9773;SDS011;4926;42.670;23.316;2022-07-19T03:19:06;6.50;;;2.60;;
9773;SDS011;4926;42.670;23.316;2022-07-19T03:21:37;3.05;;;2.40;;
9773;SDS011;4926;42.670;23.316;2022-07-19T03:24:04;2.20;;;2.00;;
9773;SDS011;4926;42.670;23.316;2022-07-19T03:26:32;2.40;;;2.20;;
9773;SDS011;4926;42.670;23.316;2022-07-19T03:28:58;5.10;;;2.45;;
9773;SDS011;4926;42.670;23.316;2022-07-19T03:31:27;4.95;;;2.35;;
9773;SDS011;4926;42.670;23.316;2022-07-19T03:33:54;2.50;;;2.30;;
9773;SDS011;4926;42.670;23.316;2022-07-19T03:36:21;4.03;;;2.30;;
9773;SDS011;4926;42.670;23.316;2022-07-19T03:38:52;5.32;;;2.45;;
9773;SDS011;4926;42.670;23.316;2022-07-19T03:41:18;5.30;;;2.33;;
9773;SDS011;4926;42.670;23.316;2022-07-19T03:43:47;3.95;;;2.53;;
9773;SDS011;4926;42.670;23.316;2022-07-19T03:46:14;4.22;;;2.28;;
9773;SDS011;4926;42.670;23.316;2022-07-19T03:48:41;3.80;;;2.50;;
9773;SDS011;4926;42.670;23.316;2022-07-19T03:51:08;5.55;;;2.50;;
9773;SDS011;4926;42.670;23.316;2022-07-19T03:53:38;3.63;;;2.50;;
9773;SDS011;4926;42.670;23.316;2022-07-19T03:56:06;4.68;;;2.85;;
9773;SDS011;4926;42.670;23.316;2022-07-19T03:58:35;7.55;;;2.50;;
9773;SDS011;4926;42.670;23.316;2022-07-19T04:01:05;5.25;;;2.85;;
9773;SDS011;4926;42.670;23.316;2022-07-19T04:03:35;4.05;;;2.60;;
9773;SDS011;4926;42.670;23.316;2022-07-19T04:06:02;4.28;;;2.78;;
9773;SDS011;4926;42.670;23.316;2022-07-19T04:08:32;3.75;;;2.92;;
9773;SDS011;4926;42.670;23.316;2022-07-19T04:10:59;4.32;;;2.33;;
9773;SDS011;4926;42.670;23.316;2022-07-19T04:13:29;6.63;;;2.75;;
9773;SDS011;4926;42.670;23.316;2022-07-19T04:15:58;5.88;;;2.60;;
9773;SDS011;4926;42.670;23.316;2022-07-19T04:18:27;5.47;;;2.40;;
9773;SDS011;4926;42.670;23.316;2022-07-19T04:20:54;3.45;;;2.75;;
9773;SDS011;4926;42.670;23.316;2022-07-19T04:23:21;7.13;;;2.58;;
9773;SDS011;4926;42.670;23.316;2022-07-19T04:25:47;4.63;;;2.40;;
9773;SDS011;4926;42.670;23.316;2022-07-19T04:28:14;6.38;;;2.70;;
9773;SDS011;4926;42.670;23.316;2022-07-19T04:30:42;4.40;;;2.55;;
9773;SDS011;4926;42.670;23.316;2022-07-19T04:33:09;5.65;;;3.15;;
9773;SDS011;4926;42.670;23.316;2022-07-19T04:35:39;5.20;;;2.92;;
9773;SDS011;4926;42.670;23.316;2022-07-19T04:38:06;5.97;;;2.78;;
9773;SDS011;4926;42.670;23.316;2022-07-19T04:40:34;6.53;;;2.70;;
9773;SDS011;4926;42.670;23.316;2022-07-19T04:43:02;2.95;;;2.60;;
9773;SDS011;4926;42.670;23.316;2022-07-19T04:45:29;3.17;;;2.47;;
9773;SDS011;4926;42.670;23.316;2022-07-19T04:47:57;3.85;;;2.45;;
9773;SDS011;4926;42.670;23.316;2022-07-19T04:50:23;4.47;;;2.67;;
9773;SDS011;4926;42.670;23.316;2022-07-19T04:52:50;6.20;;;2.78;;
9773;SDS011;4926;42.670;23.316;2022-07-19T04:55:17;3.42;;;2.47;;
9773;SDS011;4926;42.670;23.316;2022-07-19T04:57:44;6.57;;;2.60;;
9773;SDS011;4926;42.670;23.316;2022-07-19T05:00:13;4.30;;;2.78;;
9773;SDS011;4926;42.670;23.316;2022-07-19T05:02:41;5.55;;;3.13;;
9773;SDS011;4926;42.670;23.316;2022-07-19T05:05:11;7.32;;;2.70;;
9773;SDS011;4926;42.670;23.316;2022-07-19T05:07:39;7.00;;;2.58;;
9773;SDS011;4926;42.670;23.316;2022-07-19T05:10:06;6.28;;;2.97;;
9773;SDS011;4926;42.670;23.316;2022-07-19T05:12:36;6.95;;;3.15;;
9773;SDS011;4926;42.670;23.316;2022-07-19T05:15:04;7.20;;;2.80;;
9773;SDS011;4926;42.670;23.316;2022-07-19T05:17:31;4.00;;;2.70;;
9773;SDS011;4926;42.670;23.316;2022-07-19T05:20:04;4.80;;;2.60;;
9773;SDS011;4926;42.670;23.316;2022-07-19T05:22:33;3.78;;;2.78;;
9773;SDS011;4926;42.670;23.316;2022-07-19T05:24:59;7.53;;;3.38;;
9773;SDS011;4926;42.670;23.316;2022-07-19T05:27:26;3.83;;;3.00;;
9773;SDS011;4926;42.670;23.316;2022-07-19T05:29:56;5.28;;;3.10;;
9773;SDS011;4926;42.670;23.316;2022-07-19T05:32:26;11.93;;;3.47;;
9773;SDS011;4926;42.670;23.316;2022-07-19T05:34:53;10.63;;;4.05;;
9773;SDS011;4926;42.670;23.316;2022-07-19T05:37:21;7.20;;;3.70;;
9773;SDS011;4926;42.670;23.316;2022-07-19T05:39:50;10.90;;;4.43;;
9773;SDS011;4926;42.670;23.316;2022-07-19T05:42:16;11.88;;;3.53;;
9773;SDS011;4926;42.670;23.316;2022-07-19T05:44:43;11.50;;;3.33;;
9773;SDS011;4926;42.670;23.316;2022-07-19T05:47:10;8.38;;;3.20;;
9773;SDS011;4926;42.670;23.316;2022-07-19T05:49:39;9.30;;;3.58;;
9773;SDS011;4926;42.670;23.316;2022-07-19T05:52:06;7.05;;;3.90;;
9773;SDS011;4926;42.670;23.316;2022-07-19T05:54:33;7.68;;;3.42;;
9773;SDS011;4926;42.670;23.316;2022-07-19T05:57:01;6.10;;;3.58;;
9773;SDS011;4926;42.670;23.316;2022-07-19T05:59:28;5.97;;;3.53;;
9773;SDS011;4926;42.670;23.316;2022-07-19T06:02:00;4.85;;;3.40;;
9773;SDS011;4926;42.670;23.316;2022-07-19T06:04:27;7.57;;;3.75;;
9773;SDS011;4926;42.670;23.316;2022-07-19T06:06:53;5.18;;;3.50;;
9773;SDS011;4926;42.670;23.316;2022-07-19T06:09:20;8.65;;;4.10;;
9773;SDS011;4926;42.670;23.316;2022-07-19T06:11:50;4.60;;;3.65;;
9773;SDS011;4926;42.670;23.316;2022-07-19T06:14:19;5.68;;;4.13;;
9773;SDS011;4926;42.670;23.316;2022-07-19T06:16:46;9.15;;;3.75;;
9773;SDS011;4926;42.670;23.316;2022-07-19T06:19:13;7.47;;;3.92;;
9773;SDS011;4926;42.670;23.316;2022-07-19T06:21:42;6.15;;;3.78;;
9773;SDS011;4926;42.670;23.316;2022-07-19T06:24:12;6.78;;;4.20;;
9773;SDS011;4926;42.670;23.316;2022-07-19T06:26:39;10.20;;;4.78;;
9773;SDS011;4926;42.670;23.316;2022-07-19T06:29:08;7.15;;;3.45;;
9773;SDS011;4926;42.670;23.316;2022-07-19T06:31:41;7.10;;;3.90;;
9773;SDS011;4926;42.670;23.316;2022-07-19T06:34:08;5.85;;;3.85;;
9773;SDS011;4926;42.670;23.316;2022-07-19T06:36:35;7.65;;;4.00;;
9773;SDS011;4926;42.670;23.316;2022-07-19T06:39:07;6.65;;;3.70;;
9773;SDS011;4926;42.670;23.316;2022-07-19T06:41:33;6.85;;;3.38;;
9773;SDS011;4926;42.670;23.316;2022-07-19T06:44:00;7.40;;;3.40;;
9773;SDS011;4926;42.670;23.316;2022-07-19T06:46:27;9.05;;;3.22;;
9773;SDS011;4926;42.670;23.316;2022-07-19T06:48:55;8.15;;;3.60;;
9773;SDS011;4926;42.670;23.316;2022-07-19T06:51:22;9.30;;;3.60;;
9773;SDS011;4926;42.670;23.316;2022-07-19T06:53:51;8.75;;;3.70;;
9773;SDS011;4926;42.670;23.316;2022-07-19T06:56:19;13.43;;;4.28;;
9773;SDS011;4926;42.670;23.316;2022-07-19T06:58:46;9.30;;;3.40;;
9773;SDS011;4926;42.670;23.316;2022-07-19T07:01:13;11.77;;;3.92;;
9773;SDS011;4926;42.670;23.316;2022-07-19T07:03:40;14.90;;;3.70;;
9773;SDS011;4926;42.670;23.316;2022-07-19T07:06:10;4.55;;;3.10;;
9773;SDS011;4926;42.670;23.316;2022-07-19T07:08:39;6.68;;;2.95;;
9773;SDS011;4926;42.670;23.316;2022-07-19T07:11:07;8.95;;;3.97;;
9773;SDS011;4926;42.670;23.316;2022-07-19T07:13:34;7.45;;;3.15;;
9773;SDS011;4926;42.670;23.316;2022-07-19T07:16:09;5.75;;;2.85;;
9773;SDS011;4926;42.670;23.316;2022-07-19T07:18:36;23.30;;;4.70;;
9773;SDS011;4926;42.670;23.316;2022-07-19T07:21:06;14.30;;;4.05;;
9773;SDS011;4926;42.670;23.316;2022-07-19T07:23:34;9.38;;;3.90;;
9773;SDS011;4926;42.670;23.316;2022-07-19T07:26:01;4.68;;;2.80;;
9773;SDS011;4926;42.670;23.316;2022-07-19T07:28:27;11.73;;;3.25;;
9773;SDS011;4926;42.670;23.316;2022-07-19T07:30:54;4.35;;;2.70;;
9773;SDS011;4926;42.670;23.316;2022-07-19T07:33:21;6.32;;;3.08;;
9773;SDS011;4926;42.670;23.316;2022-07-19T07:35:50;9.23;;;3.28;;
9773;SDS011;4926;42.670;23.316;2022-07-19T07:38:17;3.38;;;2.65;;
9773;SDS011;4926;42.670;23.316;2022-07-19T07:40:48;5.63;;;3.10;;
9773;SDS011;4926;42.670;23.316;2022-07-19T07:43:15;7.78;;;2.80;;
9773;SDS011;4926;42.670;23.316;2022-07-19T07:45:42;7.75;;;3.00;;
9773;SDS011;4926;42.670;23.316;2022-07-19T07:48:09;5.72;;;2.90;;
9773;SDS011;4926;42.670;23.316;2022-07-19T07:50:35;9.00;;;3.15;;
9773;SDS011;4926;42.670;23.316;2022-07-19T07:53:02;4.38;;;2.50;;
9773;SDS011;4926;42.670;23.316;2022-07-19T07:55:29;9.00;;;3.30;;
9773;SDS011;4926;42.670;23.316;2022-07-19T07:57:57;3.17;;;2.70;;
9773;SDS011;4926;42.670;23.316;2022-07-19T08:00:24;5.82;;;2.60;;
9773;SDS011;4926;42.670;23.316;2022-07-19T08:02:52;6.43;;;2.60;;
9773;SDS011;4926;42.670;23.316;2022-07-19T08:05:19;9.00;;;2.88;;
9773;SDS011;4926;42.670;23.316;2022-07-19T08:07:47;6.20;;;2.90;;
9773;SDS011;4926;42.670;23.316;2022-07-19T08:10:14;6.50;;;3.00;;
9773;SDS011;4926;42.670;23.316;2022-07-19T08:12:48;5.70;;;2.50;;
9773;SDS011;4926;42.670;23.316;2022-07-19T08:15:16;6.07;;;2.90;;
9773;SDS011;4926;42.670;23.316;2022-07-19T08:17:46;5.43;;;2.75;;
9773;SDS011;4926;42.670;23.316;2022-07-19T08:20:16;3.95;;;2.22;;
9773;SDS011;4926;42.670;23.316;2022-07-19T08:22:46;4.88;;;2.50;;
9773;SDS011;4926;42.670;23.316;2022-07-19T08:25:13;5.82;;;2.65;;
9773;SDS011;4926;42.670;23.316;2022-07-19T08:27:41;7.00;;;2.63;;
9773;SDS011;4926;42.670;23.316;2022-07-19T08:30:09;3.72;;;2.40;;
9773;SDS011;4926;42.670;23.316;2022-07-19T08:32:38;3.72;;;2.45;;
9773;SDS011;4926;42.670;23.316;2022-07-19T08:35:08;2.78;;;2.08;;
9773;SDS011;4926;42.670;23.316;2022-07-19T08:37:37;3.35;;;2.17;;
9773;SDS011;4926;42.670;23.316;2022-07-19T08:40:04;5.60;;;2.55;;
9773;SDS011;4926;42.670;23.316;2022-07-19T08:42:33;4.57;;;2.35;;
9773;SDS011;4926;42.670;23.316;2022-07-19T08:45:01;4.55;;;2.40;;
9773;SDS011;4926;42.670;23.316;2022-07-19T08:47:30;5.47;;;2.40;;
9773;SDS011;4926;42.670;23.316;2022-07-19T08:49:59;4.57;;;2.63;;
9773;SDS011;4926;42.670;23.316;2022-07-19T08:52:27;4.60;;;2.58;;
9773;SDS011;4926;42.670;23.316;2022-07-19T08:54:54;4.47;;;2.38;;
9773;SDS011;4926;42.670;23.316;2022-07-19T08:57:21;3.25;;;2.33;;
9773;SDS011;4926;42.670;23.316;2022-07-19T09:00:07;3.15;;;2.40;;
9773;SDS011;4926;42.670;23.316;2022-07-19T09:02:35;3.47;;;2.33;;
9773;SDS011;4926;42.670;23.316;2022-07-19T09:05:04;4.20;;;2.40;;
9773;SDS011;4926;42.670;23.316;2022-07-19T09:07:33;4.68;;;2.10;;
9773;SDS011;4926;42.670;23.316;2022-07-19T09:10:13;2.80;;;2.53;;
9773;SDS011;4926;42.670;23.316;2022-07-19T09:12:57;4.93;;;2.28;;
9773;SDS011;4926;42.670;23.316;2022-07-19T09:15:36;3.72;;;2.00;;
9773;SDS011;4926;42.670;23.316;2022-07-19T09:18:15;3.95;;;2.20;;
9773;SDS011;4926;42.670;23.316;2022-07-19T09:20:46;2.40;;;2.03;;
9773;SDS011;4926;42.670;23.316;2022-07-19T09:23:17;3.90;;;2.38;;
9773;SDS011;4926;42.670;23.316;2022-07-19T09:25:44;6.70;;;2.42;;
9773;SDS011;4926;42.670;23.316;2022-07-19T09:28:14;2.40;;;2.20;;
9773;SDS011;4926;42.670;23.316;2022-07-19T09:30:41;5.53;;;2.63;;
9773;SDS011;4926;42.670;23.316;2022-07-19T09:33:11;3.22;;;2.35;;
9773;SDS011;4926;42.670;23.316;2022-07-19T09:35:43;4.22;;;2.30;;
9773;SDS011;4926;42.670;23.316;2022-07-19T09:38:16;2.80;;;2.15;;
9773;SDS011;4926;42.670;23.316;2022-07-19T09:40:47;3.45;;;2.50;;
9773;SDS011;4926;42.670;23.316;2022-07-19T09:43:15;4.40;;;2.20;;
9773;SDS011;4926;42.670;23.316;2022-07-19T09:45:44;6.75;;;2.35;;
9773;SDS011;4926;42.670;23.316;2022-07-19T09:48:11;3.03;;;2.33;;
9773;SDS011;4926;42.670;23.316;2022-07-19T09:50:38;7.32;;;2.25;;
9773;SDS011;4926;42.670;23.316;2022-07-19T09:53:09;3.22;;;2.17;;
9773;SDS011;4926;42.670;23.316;2022-07-19T09:55:38;5.15;;;2.65;;
9773;SDS011;4926;42.670;23.316;2022-07-19T09:58:07;4.60;;;3.05;;
9773;SDS011;4926;42.670;23.316;2022-07-19T10:00:37;3.92;;;2.75;;
9773;SDS011;4926;42.670;23.316;2022-07-19T10:03:05;6.35;;;2.38;;
9773;SDS011;4926;42.670;23.316;2022-07-19T10:05:35;3.97;;;2.85;;
9773;SDS011;4926;42.670;23.316;2022-07-19T10:08:05;4.43;;;2.30;;
9773;SDS011;4926;42.670;23.316;2022-07-19T10:10:34;3.60;;;2.35;;
9773;SDS011;4926;42.670;23.316;2022-07-19T10:13:01;3.45;;;2.65;;
9773;SDS011;4926;42.670;23.316;2022-07-19T10:15:32;6.43;;;2.20;;
9773;SDS011;4926;42.670;23.316;2022-07-19T10:18:11;2.47;;;2.28;;
9773;SDS011;4926;42.670;23.316;2022-07-19T10:20:39;4.63;;;2.58;;
9773;SDS011;4926;42.670;23.316;2022-07-19T10:23:09;4.53;;;2.20;;
9773;SDS011;4926;42.670;23.316;2022-07-19T10:25:41;4.72;;;2.50;;
9773;SDS011;4926;42.670;23.316;2022-07-19T10:28:29;3.15;;;2.70;;
9773;SDS011;4926;42.670;23.316;2022-07-19T10:30:58;3.72;;;2.30;;
9773;SDS011;4926;42.670;23.316;2022-07-19T10:33:26;3.22;;;2.53;;
9773;SDS011;4926;42.670;23.316;2022-07-19T10:35:55;3.17;;;2.40;;
9773;SDS011;4926;42.670;23.316;2022-07-19T10:38:22;3.22;;;2.58;;
9773;SDS011;4926;42.670;23.316;2022-07-19T10:40:53;4.78;;;2.35;;
9773;SDS011;4926;42.670;23.316;2022-07-19T10:43:23;3.78;;;2.50;;
9773;SDS011;4926;42.670;23.316;2022-07-19T10:46:08;3.15;;;2.85;;
9773;SDS011;4926;42.670;23.316;2022-07-19T10:48:37;3.35;;;2.40;;
9773;SDS011;4926;42.670;23.316;2022-07-19T10:51:07;5.45;;;2.88;;
9773;SDS011;4926;42.670;23.316;2022-07-19T10:56:34;3.85;;;3.00;;
9773;SDS011;4926;42.670;23.316;2022-07-19T10:59:03;3.67;;;2.35;;
9773;SDS011;4926;42.670;23.316;2022-07-19T11:01:36;4.55;;;2.75;;
9773;SDS011;4926;42.670;23.316;2022-07-19T11:04:24;3.88;;;2.42;;
9773;SDS011;4926;42.670;23.316;2022-07-19T11:09:42;3.35;;;2.75;;
9773;SDS011;4926;42.670;23.316;2022-07-19T11:12:29;5.45;;;2.45;;
9773;SDS011;4926;42.670;23.316;2022-07-19T11:14:58;3.47;;;2.47;;
9773;SDS011;4926;42.670;23.316;2022-07-19T11:17:29;4.63;;;3.00;;
9773;SDS011;4926;42.670;23.316;2022-07-19T11:20:01;4.70;;;3.22;;
9773;SDS011;4926;42.670;23.316;2022-07-19T11:22:32;4.45;;;3.30;;
9773;SDS011;4926;42.670;23.316;2022-07-19T11:25:00;4.72;;;2.70;;
9773;SDS011;4926;42.670;23.316;2022-07-19T11:27:33;16.23;;;3.75;;
9773;SDS011;4926;42.670;23.316;2022-07-19T11:30:00;3.35;;;2.50;;
9773;SDS011;4926;42.670;23.316;2022-07-19T11:32:29;5.50;;;2.58;;
9773;SDS011;4926;42.670;23.316;2022-07-19T11:34:57;2.78;;;2.50;;
9773;SDS011;4926;42.670;23.316;2022-07-19T11:37:26;2.40;;;2.20;;
9773;SDS011;4926;42.670;23.316;2022-07-19T11:39:55;3.88;;;2.20;;
9773;SDS011;4926;42.670;23.316;2022-07-19T11:42:32;4.03;;;2.70;;
9773;SDS011;4926;42.670;23.316;2022-07-19T11:45:08;6.05;;;2.60;;
9773;SDS011;4926;42.670;23.316;2022-07-19T11:47:43;10.93;;;2.55;;
9773;SDS011;4926;42.670;23.316;2022-07-19T11:50:14;5.57;;;2.40;;
9773;SDS011;4926;42.670;23.316;2022-07-19T11:52:47;2.65;;;2.30;;
9773;SDS011;4926;42.670;23.316;2022-07-19T11:55:25;3.72;;;2.17;;
9773;SDS011;4926;42.670;23.316;2022-07-19T11:57:57;3.28;;;2.60;;
9773;SDS011;4926;42.670;23.316;2022-07-19T12:00:23;5.07;;;2.70;;
9773;SDS011;4926;42.670;23.316;2022-07-19T12:02:54;6.43;;;2.55;;
9773;SDS011;4926;42.670;23.316;2022-07-19T12:05:23;5.07;;;2.13;;
9773;SDS011;4926;42.670;23.316;2022-07-19T12:07:51;6.25;;;2.55;;
9773;SDS011;4926;42.670;23.316;2022-07-19T12:10:33;3.95;;;2.10;;
9773;SDS011;4926;42.670;23.316;2022-07-19T12:13:04;2.53;;;2.22;;
9773;SDS011;4926;42.670;23.316;2022-07-19T12:15:49;4.30;;;2.30;;
9773;SDS011;4926;42.670;23.316;2022-07-19T12:18:18;3.15;;;2.40;;
9773;SDS011;4926;42.670;23.316;2022-07-19T12:23:41;4.72;;;2.60;;
9773;SDS011;4926;42.670;23.316;2022-07-19T12:26:08;3.50;;;2.08;;
9773;SDS011;4926;42.670;23.316;2022-07-19T12:28:39;3.08;;;2.03;;
9773;SDS011;4926;42.670;23.316;2022-07-19T12:31:06;5.05;;;2.50;;
9773;SDS011;4926;42.670;23.316;2022-07-19T12:33:33;4.85;;;2.72;;
9773;SDS011;4926;42.670;23.316;2022-07-19T12:36:01;3.85;;;2.20;;
9773;SDS011;4926;42.670;23.316;2022-07-19T12:38:30;3.92;;;2.40;;
9773;SDS011;4926;42.670;23.316;2022-07-19T12:41:06;3.45;;;2.58;;
9773;SDS011;4926;42.670;23.316;2022-07-19T12:43:36;8.85;;;2.90;;
9773;SDS011;4926;42.670;23.316;2022-07-19T12:46:04;5.13;;;2.63;;
9773;SDS011;4926;42.670;23.316;2022-07-19T12:48:31;2.90;;;2.20;;
9773;SDS011;4926;42.670;23.316;2022-07-19T12:50:58;6.45;;;2.35;;
9773;SDS011;4926;42.670;23.316;2022-07-19T12:53:25;4.88;;;2.40;;
9773;SDS011;4926;42.670;23.316;2022-07-19T12:55:52;4.57;;;2.40;;
9773;SDS011;4926;42.670;23.316;2022-07-19T12:58:19;3.67;;;2.50;;
9773;SDS011;4926;42.670;23.316;2022-07-19T13:01:05;2.38;;;2.17;;
9773;SDS011;4926;42.670;23.316;2022-07-19T13:03:33;2.45;;;2.25;;
9773;SDS011;4926;42.670;23.316;2022-07-19T13:06:02;2.45;;;2.25;;
9773;SDS011;4926;42.670;23.316;2022-07-19T13:08:29;2.10;;;1.95;;
9773;SDS011;4926;42.670;23.316;2022-07-19T13:10:56;2.53;;;2.20;;
9773;SDS011;4926;42.670;23.316;2022-07-19T13:13:28;3.25;;;2.28;;
9773;SDS011;4926;42.670;23.316;2022-07-19T13:15:55;2.35;;;2.00;;
9773;SDS011;4926;42.670;23.316;2022-07-19T13:18:25;6.53;;;2.50;;
9773;SDS011;4926;42.670;23.316;2022-07-19T13:20:52;2.33;;;2.10;;
9773;SDS011;4926;42.670;23.316;2022-07-19T13:23:19;4.07;;;2.30;;
9773;SDS011;4926;42.670;23.316;2022-07-19T13:25:47;3.83;;;2.40;;
9773;SDS011;4926;42.670;23.316;2022-07-19T13:28:17;4.18;;;2.30;;
9773;SDS011;4926;42.670;23.316;2022-07-19T13:30:44;4.13;;;2.20;;
9773;SDS011;4926;42.670;23.316;2022-07-19T13:33:11;4.60;;;2.30;;
9773;SDS011;4926;42.670;23.316;2022-07-19T13:35:41;2.80;;;2.20;;
9773;SDS011;4926;42.670;23.316;2022-07-19T13:38:07;4.43;;;1.85;;
9773;SDS011;4926;42.670;23.316;2022-07-19T13:40:36;5.50;;;2.50;;
9773;SDS011;4926;42.670;23.316;2022-07-19T13:43:05;2.60;;;2.30;;
9773;SDS011;4926;42.670;23.316;2022-07-19T13:45:31;7.05;;;2.30;;
9773;SDS011;4926;42.670;23.316;2022-07-19T13:47:58;4.88;;;2.20;;
9773;SDS011;4926;42.670;23.316;2022-07-19T13:50:25;2.95;;;2.00;;
9773;SDS011;4926;42.670;23.316;2022-07-19T13:52:53;4.40;;;2.40;;
9773;SDS011;4926;42.670;23.316;2022-07-19T13:55:20;5.07;;;2.67;;
9773;SDS011;4926;42.670;23.316;2022-07-19T13:57:47;3.20;;;2.28;;
9773;SDS011;4926;42.670;23.316;2022-07-19T14:00:17;4.47;;;2.15;;
9773;SDS011;4926;42.670;23.316;2022-07-19T14:02:46;3.33;;;1.80;;
9773;SDS011;4926;42.670;23.316;2022-07-19T14:05:14;6.10;;;2.40;;
9773;SDS011;4926;42.670;23.316;2022-07-19T14:07:41;4.90;;;2.25;;
9773;SDS011;4926;42.670;23.316;2022-07-19T14:10:09;3.08;;;1.85;;
9773;SDS011;4926;42.670;23.316;2022-07-19T14:12:36;2.58;;;2.00;;
9773;SDS011;4926;42.670;23.316;2022-07-19T14:15:04;5.03;;;2.00;;
9773;SDS011;4926;42.670;23.316;2022-07-19T14:17:32;4.13;;;2.15;;
9773;SDS011;4926;42.670;23.316;2022-07-19T14:20:04;3.53;;;1.75;;
9773;SDS011;4926;42.670;23.316;2022-07-19T14:22:34;2.60;;;2.10;;
9773;SDS011;4926;42.670;23.316;2022-07-19T14:25:00;2.55;;;1.80;;
9773;SDS011;4926;42.670;23.316;2022-07-19T14:27:28;2.38;;;1.88;;
9773;SDS011;4926;42.670;23.316;2022-07-19T14:29:55;2.85;;;1.90;;
9773;SDS011;4926;42.670;23.316;2022-07-19T14:32:26;3.83;;;2.10;;
9773;SDS011;4926;42.670;23.316;2022-07-19T14:34:53;3.53;;;2.00;;
9773;SDS011;4926;42.670;23.316;2022-07-19T14:37:19;3.22;;;1.98;;
9773;SDS011;4926;42.670;23.316;2022-07-19T14:39:46;5.78;;;2.28;;
9773;SDS011;4926;42.670;23.316;2022-07-19T14:42:13;4.90;;;2.22;;
9773;SDS011;4926;42.670;23.316;2022-07-19T14:44:43;3.42;;;1.80;;
9773;SDS011;4926;42.670;23.316;2022-07-19T14:47:10;5.22;;;1.80;;
9773;SDS011;4926;42.670;23.316;2022-07-19T14:49:37;3.15;;;1.75;;
9773;SDS011;4926;42.670;23.316;2022-07-19T14:52:06;3.25;;;1.90;;
9773;SDS011;4926;42.670;23.316;2022-07-19T14:54:33;2.95;;;1.92;;
9773;SDS011;4926;42.670;23.316;2022-07-19T14:57:03;4.85;;;2.13;;
9773;SDS011;4926;42.670;23.316;2022-07-19T14:59:29;2.40;;;1.88;;
9773;SDS011;4926;42.670;23.316;2022-07-19T15:01:58;3.67;;;1.65;;
9773;SDS011;4926;42.670;23.316;2022-07-19T15:04:24;4.50;;;2.20;;
9773;SDS011;4926;42.670;23.316;2022-07-19T15:06:54;6.05;;;2.33;;
9773;SDS011;4926;42.670;23.316;2022-07-19T15:09:21;4.47;;;1.92;;
9773;SDS011;4926;42.670;23.316;2022-07-19T15:11:48;2.65;;;2.00;;
9773;SDS011;4926;42.670;23.316;2022-07-19T15:14:14;5.53;;;1.92;;
9773;SDS011;4926;42.670;23.316;2022-07-19T15:16:41;3.85;;;1.80;;
9773;SDS011;4926;42.670;23.316;2022-07-19T15:19:09;3.97;;;2.42;;